createdAt,value
2023-01-25T00:01:13.522Z,99901.03
2023-01-25T00:03:40.549Z,99901.97
2023-01-25T00:06:08.853Z,99901.38
2023-01-25T00:08:36.217Z,99897.13
2023-01-25T00:11:03.165Z,99890.09
2023-01-25T00:13:30.705Z,99890.63
2023-01-25T00:16:05.224Z,99882.91
2023-01-25T00:18:32.657Z,99880.78
2023-01-25T00:20:59.684Z,99879.69
2023-01-25T00:23:27.049Z,99873.72
2023-01-25T00:25:58.827Z,99869.72
2023-01-25T00:28:25.935Z,99884.72
2023-01-25T00:30:53.314Z,99890.13
2023-01-25T00:33:27.537Z,99900.94
2023-01-25T00:35:57.353Z,99895.16
2023-01-25T00:38:35.115Z,99894.91
2023-01-25T00:41:02.473Z,99883.13
2023-01-25T00:43:29.839Z,99885.63
2023-01-25T00:46:03.516Z,99882.53
2023-01-25T00:48:31.063Z,99880.13
2023-01-25T00:51:03.611Z,99871.34
2023-01-25T00:53:30.655Z,99876.00
2023-01-25T00:55:58.033Z,99875.28
2023-01-25T00:58:25.027Z,99872.72
2023-01-25T01:00:56.794Z,99871.94
2023-01-25T01:03:24.839Z,99863.03
2023-01-25T01:06:12.494Z,99863.41
2023-01-25T01:08:41.906Z,99854.41
2023-01-25T01:11:11.395Z,99863.94
2023-01-25T01:13:39.480Z,99863.84
2023-01-25T01:16:11.251Z,99860.31
2023-01-25T01:18:42.955Z,99857.63
2023-01-25T01:21:11.459Z,99863.19
2023-01-25T01:23:38.971Z,99866.75
2023-01-25T01:26:09.288Z,99865.84
2023-01-25T01:28:39.487Z,99862.50
2023-01-25T01:31:20.200Z,99861.13
2023-01-25T01:34:01.082Z,99862.03
2023-01-25T01:36:30.376Z,99859.03
2023-01-25T01:38:59.837Z,99869.47
2023-01-25T01:41:27.613Z,99856.28
2023-01-25T01:43:55.250Z,99856.41
2023-01-25T01:46:31.926Z,99857.91
2023-01-25T01:49:20.004Z,99856.97
2023-01-25T01:52:08.900Z,99864.72
2023-01-25T01:55:14.795Z,99866.97
2023-01-25T01:57:58.027Z,99870.66
2023-01-25T02:00:34.015Z,99860.41
2023-01-25T02:03:02.280Z,99871.63
2023-01-25T02:05:51.364Z,99867.19
2023-01-25T02:08:19.840Z,99858.50
2023-01-25T02:10:49.508Z,99862.13
2023-01-25T02:13:21.658Z,99856.91
2023-01-25T02:15:51.510Z,99859.66
2023-01-25T02:18:19.755Z,99865.72
2023-01-25T02:20:51.718Z,99856.19
2023-01-25T02:23:30.890Z,99851.47
2023-01-25T02:26:03.705Z,99850.00
2023-01-25T02:28:47.954Z,99855.75
2023-01-25T02:31:15.656Z,99850.09
2023-01-25T02:33:43.101Z,99850.56
2023-01-25T02:36:33.643Z,99853.97
2023-01-25T02:39:04.210Z,99846.03
2023-01-25T02:41:40.393Z,99848.69
2023-01-25T02:44:20.489Z,99840.59
2023-01-25T02:46:48.590Z,99836.38
2023-01-25T02:49:16.529Z,99831.75
2023-01-25T02:51:47.769Z,99839.97
2023-01-25T02:54:16.879Z,99836.31
2023-01-25T02:56:44.330Z,99834.72
2023-01-25T02:59:13.463Z,99835.56
2023-01-25T03:01:43.860Z,99823.13
2023-01-25T03:04:11.873Z,99821.72
2023-01-25T03:06:40.080Z,99819.41
2023-01-25T03:09:10.773Z,99818.13
2023-01-25T03:11:41.996Z,99815.63
2023-01-25T03:14:10.389Z,99812.63
2023-01-25T03:16:37.837Z,99810.84
2023-01-25T03:19:06.503Z,99809.16
2023-01-25T03:21:33.898Z,99802.47
2023-01-25T03:24:02.482Z,99802.53
2023-01-25T03:26:56.671Z,99798.66
2023-01-25T03:29:33.481Z,99802.34
2023-01-25T03:32:01.278Z,99807.06
2023-01-25T03:34:28.851Z,99810.81
2023-01-25T03:36:57.640Z,99807.41
2023-01-25T03:39:25.250Z,99799.97
2023-01-25T03:41:52.763Z,99813.56
2023-01-25T03:44:20.128Z,99814.00
2023-01-25T03:46:48.071Z,99805.72
2023-01-25T03:49:15.523Z,99808.19
2023-01-25T03:51:42.978Z,99808.06
2023-01-25T03:54:10.497Z,99800.63
2023-01-25T03:56:38.376Z,99794.09
2023-01-25T03:59:11.763Z,99792.78
2023-01-25T04:01:39.395Z,99800.34
2023-01-25T04:04:06.830Z,99803.78
2023-01-25T04:06:34.760Z,99805.19
2023-01-25T04:09:03.327Z,99804.44
2023-01-25T04:11:37.314Z,99800.25
2023-01-25T04:14:05.255Z,99802.66
2023-01-25T04:16:40.683Z,99798.69
2023-01-25T04:19:33.120Z,99788.94
2023-01-25T04:22:02.283Z,99780.53
2023-01-25T04:24:34.997Z,99790.19
2023-01-25T04:27:03.087Z,99783.22
2023-01-25T04:29:41.111Z,99789.75
2023-01-25T04:32:10.490Z,99783.53
2023-01-25T04:34:38.791Z,99777.63
2023-01-25T04:37:09.857Z,99781.19
2023-01-25T04:39:46.532Z,99778.09
2023-01-25T04:45:08.841Z,99773.25
2023-01-25T04:47:36.331Z,99775.38
2023-01-25T04:50:05.386Z,99773.38
2023-01-25T04:52:33.869Z,99773.59
2023-01-25T04:55:01.434Z,99769.88
2023-01-25T04:57:32.516Z,99777.72
2023-01-25T04:59:59.953Z,99773.47
2023-01-25T05:02:30.303Z,99783.38
2023-01-25T05:04:58.389Z,99774.50
2023-01-25T05:07:25.800Z,99773.41
2023-01-25T05:09:53.190Z,99773.22
2023-01-25T05:12:23.776Z,99771.19
2023-01-25T05:14:55.002Z,99773.22
2023-01-25T05:17:23.426Z,99764.97
2023-01-25T05:19:50.913Z,99757.38
2023-01-25T05:22:21.813Z,99759.47
2023-01-25T05:24:52.811Z,99764.41
2023-01-25T05:27:21.213Z,99763.00
2023-01-25T05:29:54.984Z,99751.75
2023-01-25T05:32:43.705Z,99754.47
2023-01-25T05:35:11.699Z,99759.25
2023-01-25T05:37:40.030Z,99754.91
2023-01-25T05:40:11.810Z,99760.13
2023-01-25T05:42:39.760Z,99748.72
2023-01-25T05:45:13.362Z,99749.34
2023-01-25T05:47:42.186Z,99753.66
2023-01-25T05:50:10.078Z,99754.69
2023-01-25T05:52:56.513Z,99740.66
2023-01-25T05:55:24.407Z,99744.13
2023-01-25T05:57:57.897Z,99752.38
2023-01-25T06:00:25.404Z,99746.03
2023-01-25T06:02:52.931Z,99750.03
2023-01-25T06:05:24.302Z,99745.31
2023-01-25T06:07:51.749Z,99744.88
2023-01-25T06:10:20.726Z,99739.38
2023-01-25T06:12:50.473Z,99736.13
2023-01-25T06:15:17.990Z,99732.94
2023-01-25T06:17:45.511Z,99733.31
2023-01-25T06:20:32.343Z,99729.22
2023-01-25T06:23:05.806Z,99729.97
2023-01-25T06:25:33.172Z,99727.47
2023-01-25T06:28:00.557Z,99735.22
2023-01-25T06:30:30.594Z,99735.81
2023-01-25T06:33:01.574Z,99745.88
2023-01-25T06:35:29.123Z,99741.88
2023-01-25T06:37:57.162Z,99742.53
2023-01-25T06:40:25.117Z,99741.13
2023-01-25T06:42:52.513Z,99742.31
2023-01-25T06:45:19.815Z,99730.28
2023-01-25T06:47:49.316Z,99716.13
2023-01-25T06:50:16.663Z,99723.69
2023-01-25T06:52:44.133Z,99720.44
2023-01-25T06:55:13.986Z,99713.44
2023-01-25T06:57:41.522Z,99707.44
2023-01-25T07:00:09.561Z,99713.72
2023-01-25T07:02:37.369Z,99711.75
2023-01-25T07:05:05.136Z,99711.75
2023-01-25T07:07:32.548Z,99710.19
2023-01-25T07:10:01.858Z,99706.09
2023-01-25T07:12:30.455Z,99710.81
2023-01-25T07:14:57.819Z,99717.09
2023-01-25T07:17:25.129Z,99711.44
2023-01-25T07:19:52.499Z,99714.25
2023-01-25T07:22:19.857Z,99713.44
2023-01-25T07:24:50.552Z,99709.19
2023-01-25T07:27:18.343Z,99699.41
2023-01-25T07:29:45.814Z,99701.19
2023-01-25T07:32:16.202Z,99697.41
2023-01-25T07:34:43.517Z,99694.34
2023-01-25T07:37:10.929Z,99692.69
2023-01-25T07:39:38.572Z,99692.28
2023-01-25T07:42:05.870Z,99700.97
2023-01-25T07:44:34.218Z,99699.91
2023-01-25T07:47:12.491Z,99703.66
2023-01-25T07:49:39.797Z,99696.25
2023-01-25T07:52:07.169Z,99693.00
2023-01-25T07:54:34.674Z,99694.56
2023-01-25T07:57:02.138Z,99700.03
2023-01-25T07:59:31.228Z,99695.63
2023-01-25T08:01:58.562Z,99697.28
2023-01-25T08:04:26.321Z,99703.28
2023-01-25T08:06:53.633Z,99691.94
2023-01-25T08:09:20.946Z,99698.25
2023-01-25T08:11:49.416Z,99700.13
2023-01-25T08:14:16.919Z,99702.13
2023-01-25T08:16:44.464Z,99709.94
2023-01-25T08:19:11.959Z,99716.97
2023-01-25T08:21:39.317Z,99709.97
2023-01-25T08:24:07.664Z,99702.72
2023-01-25T08:26:36.199Z,99708.81
2023-01-25T08:29:04.071Z,99710.75
2023-01-25T08:31:33.897Z,99717.03
2023-01-25T08:34:02.098Z,99708.56
2023-01-25T08:36:29.592Z,99708.25
2023-01-25T08:38:59.746Z,99698.84
2023-01-25T08:41:29.110Z,99701.16
2023-01-25T08:43:56.882Z,99686.41
2023-01-25T08:46:27.627Z,99692.91
2023-01-25T08:48:57.509Z,99690.06
2023-01-25T08:51:25.453Z,99683.88
2023-01-25T08:53:52.893Z,99675.63
2023-01-25T08:56:20.311Z,99683.69
2023-01-25T08:58:49.435Z,99678.22
2023-01-25T09:01:19.193Z,99672.38
2023-01-25T09:03:49.254Z,99675.81
2023-01-25T09:06:17.593Z,99678.44
2023-01-25T09:08:45.183Z,99683.44
2023-01-25T09:11:14.839Z,99678.84
2023-01-25T09:13:45.121Z,99673.84
2023-01-25T09:16:16.281Z,99681.19
2023-01-25T09:18:45.374Z,99674.03
2023-01-25T09:21:18.303Z,99673.63
2023-01-25T09:23:51.050Z,99676.03
2023-01-25T09:26:19.412Z,99677.63
2023-01-25T09:28:52.740Z,99656.22
2023-01-25T09:31:23.792Z,99660.63
2023-01-25T09:34:12.355Z,99656.25
2023-01-25T09:36:39.782Z,99662.34
2023-01-25T09:39:07.182Z,99655.22
2023-01-25T09:42:00.646Z,99654.03
2023-01-25T09:45:00.278Z,99659.78
2023-01-25T09:47:41.649Z,99660.47
2023-01-25T09:50:33.208Z,99662.03
2023-01-25T09:53:33.863Z,99654.50
2023-01-25T09:56:26.934Z,99662.31
2023-01-25T09:59:03.501Z,99660.34
2023-01-25T10:01:53.490Z,99652.56
2023-01-25T10:04:25.774Z,99655.09
2023-01-25T10:07:01.560Z,99644.19
2023-01-25T10:09:51.670Z,99646.81
2023-01-25T10:12:24.972Z,99652.06
2023-01-25T10:14:52.496Z,99651.22
2023-01-25T10:17:35.968Z,99642.19
2023-01-25T10:20:18.713Z,99638.00
2023-01-25T10:23:08.724Z,99640.63
2023-01-25T10:25:45.797Z,99634.00
2023-01-25T10:28:35.895Z,99637.44
2023-01-25T10:31:18.649Z,99632.88
2023-01-25T10:33:48.102Z,99625.06
2023-01-25T10:36:17.987Z,99621.69
2023-01-25T10:38:48.991Z,99624.41
2023-01-25T10:41:24.959Z,99618.13
2023-01-25T10:44:12.589Z,99610.41
2023-01-25T10:46:42.251Z,99617.81
2023-01-25T10:49:23.343Z,99617.03
2023-01-25T10:51:50.726Z,99606.66
2023-01-25T10:54:18.106Z,99604.72
2023-01-25T10:56:46.371Z,99603.00
2023-01-25T10:59:25.472Z,99609.72
2023-01-25T11:01:52.974Z,99612.16
2023-01-25T11:04:36.882Z,99612.47
2023-01-25T11:07:06.007Z,99617.09
2023-01-25T11:09:39.197Z,99604.53
2023-01-25T11:12:18.669Z,99605.53
2023-01-25T11:14:50.955Z,99596.13
2023-01-25T11:17:31.609Z,99592.81
2023-01-25T11:20:28.248Z,99588.50
2023-01-25T11:22:57.453Z,99586.63
2023-01-25T11:25:33.766Z,99582.78
2023-01-25T11:28:12.311Z,99576.41
2023-01-25T11:30:39.749Z,99569.97
2023-01-25T11:33:12.187Z,99572.78
2023-01-25T11:35:58.983Z,99574.34
2023-01-25T11:38:26.487Z,99571.00
2023-01-25T11:41:10.270Z,99558.06
2023-01-25T11:44:07.189Z,99560.66
2023-01-25T11:46:49.492Z,99549.25
2023-01-25T11:49:39.917Z,99535.13
2023-01-25T11:52:28.773Z,99531.78
2023-01-25T11:55:34.196Z,99528.03
2023-01-25T11:58:33.486Z,99522.91
2023-01-25T12:01:26.106Z,99521.03
2023-01-25T12:04:36.054Z,99506.69
2023-01-25T12:07:06.372Z,99506.34
2023-01-25T12:09:43.009Z,99493.97
2023-01-25T12:12:41.957Z,99492.88
2023-01-25T12:15:31.390Z,99489.31
2023-01-25T12:18:27.080Z,99483.03
2023-01-25T12:21:31.664Z,99479.28
2023-01-25T12:24:39.850Z,99461.84
2023-01-25T12:27:26.585Z,99455.88
2023-01-25T12:30:22.823Z,99449.03
2023-01-25T12:33:08.990Z,99438.66
2023-01-25T12:35:48.333Z,99434.75
2023-01-25T12:38:33.765Z,99429.78
2023-01-25T12:41:12.975Z,99429.69
2023-01-25T12:43:52.641Z,99430.91
2023-01-25T12:47:06.489Z,99422.53
2023-01-25T12:50:15.391Z,99417.84
2023-01-25T12:53:02.344Z,99411.00
2023-01-25T12:55:29.937Z,99407.91
2023-01-25T12:58:07.429Z,99405.00
2023-01-25T13:01:09.299Z,99396.72
2023-01-25T13:04:03.376Z,99400.41
2023-01-25T13:07:01.634Z,99393.66
2023-01-25T13:09:44.316Z,99386.69
2023-01-25T13:12:12.753Z,99386.88
2023-01-25T13:14:41.071Z,99372.91
2023-01-25T13:17:28.034Z,99381.63
2023-01-25T13:19:55.724Z,99373.63
2023-01-25T13:22:47.166Z,99374.25
2023-01-25T13:25:17.145Z,99383.41
2023-01-25T13:27:44.524Z,99376.28
2023-01-25T13:30:34.144Z,99378.00
2023-01-25T13:33:04.633Z,99374.41
2023-01-25T13:35:41.401Z,99373.50
2023-01-25T13:38:31.366Z,99361.34
2023-01-25T13:41:12.110Z,99368.19
2023-01-25T13:43:45.454Z,99363.81
2023-01-25T13:46:16.730Z,99367.28
2023-01-25T13:48:59.584Z,99355.69
2023-01-25T13:51:29.431Z,99345.50
2023-01-25T13:53:59.379Z,99344.41
2023-01-25T13:56:34.273Z,99338.13
2023-01-25T13:59:02.241Z,99339.16
2023-01-25T14:01:31.900Z,99335.28
2023-01-25T14:04:03.576Z,99337.06
2023-01-25T14:06:38.670Z,99339.34
2023-01-25T14:09:16.423Z,99344.25
2023-01-25T14:11:55.951Z,99335.81
2023-01-25T14:14:28.739Z,99335.81
2023-01-25T14:17:15.194Z,99342.34
2023-01-25T14:19:51.828Z,99339.22
2023-01-25T14:22:32.687Z,99335.47
2023-01-25T14:25:18.973Z,99340.09
2023-01-25T14:27:55.695Z,99336.38
2023-01-25T14:30:30.496Z,99322.16
2023-01-25T14:33:04.491Z,99323.50
2023-01-25T14:35:54.737Z,99327.94
2023-01-25T14:38:37.158Z,99331.63
2023-01-25T14:41:26.179Z,99326.81
2023-01-25T14:43:59.395Z,99333.97
2023-01-25T14:46:33.006Z,99328.97
2023-01-25T14:49:13.129Z,99330.56
2023-01-25T14:51:51.012Z,99315.97
2023-01-25T14:54:21.555Z,99308.78
2023-01-25T14:56:53.075Z,99311.44
2023-01-25T14:59:44.882Z,99305.84
2023-01-25T15:02:26.622Z,99298.56
2023-01-25T15:05:14.555Z,99299.03
2023-01-25T15:07:52.625Z,99303.22
2023-01-25T15:10:28.876Z,99297.34
2023-01-25T15:13:25.590Z,99295.13
2023-01-25T15:16:01.945Z,99290.50
2023-01-25T15:18:52.960Z,99293.59
2023-01-25T15:21:28.790Z,99285.97
2023-01-25T15:23:58.888Z,99282.38
2023-01-25T15:26:28.741Z,99285.59
2023-01-25T15:29:02.594Z,99280.00
2023-01-25T15:31:33.081Z,99274.47
2023-01-25T15:34:01.828Z,99272.84
2023-01-25T15:36:30.616Z,99276.78
2023-01-25T15:38:57.989Z,99266.91
2023-01-25T15:41:25.592Z,99264.97
2023-01-25T15:43:52.956Z,99261.19
2023-01-25T15:46:27.837Z,99258.81
2023-01-25T15:48:55.516Z,99250.94
2023-01-25T15:51:23.481Z,99239.03
2023-01-25T15:53:50.895Z,99235.00
2023-01-25T15:56:27.287Z,99238.41
2023-01-25T15:58:58.684Z,99227.25
2023-01-25T16:01:28.636Z,99231.44
2023-01-25T16:03:57.442Z,99231.06
2023-01-25T16:06:47.388Z,99226.44
2023-01-25T16:09:26.713Z,99222.16
2023-01-25T16:12:03.126Z,99223.09
2023-01-25T16:14:31.457Z,99225.31
2023-01-25T16:17:02.600Z,99226.84
2023-01-25T16:19:30.130Z,99227.19
2023-01-25T16:21:58.053Z,99226.88
2023-01-25T16:24:25.402Z,99223.28
2023-01-25T16:27:00.736Z,99211.78
2023-01-25T16:29:28.134Z,99216.38
2023-01-25T16:31:56.279Z,99206.88
2023-01-25T16:34:23.807Z,99209.28
2023-01-25T16:36:51.411Z,99215.66
2023-01-25T16:39:24.842Z,99209.28
2023-01-25T16:41:52.193Z,99210.06
2023-01-25T16:44:19.604Z,99210.31
2023-01-25T16:46:50.404Z,99206.53
2023-01-25T16:49:30.511Z,99209.50
2023-01-25T16:51:59.044Z,99210.34
2023-01-25T16:54:27.146Z,99218.22
2023-01-25T16:56:55.103Z,99196.56
2023-01-25T16:59:24.330Z,99197.63
2023-01-25T17:01:52.221Z,99200.34
2023-01-25T17:04:20.037Z,99195.47
2023-01-25T17:06:50.217Z,99195.94
2023-01-25T17:09:24.174Z,99185.34
2023-01-25T17:11:53.128Z,99187.88
2023-01-25T17:14:20.831Z,99185.47
2023-01-25T17:16:51.465Z,99190.34
2023-01-25T17:19:19.534Z,99193.22
2023-01-25T17:21:47.357Z,99178.09
2023-01-25T17:24:19.076Z,99171.41
2023-01-25T17:26:46.520Z,99172.28
2023-01-25T17:29:14.061Z,99164.06
2023-01-25T17:31:42.526Z,99167.84
2023-01-25T17:34:13.294Z,99169.88
2023-01-25T17:36:40.680Z,99172.94
2023-01-25T17:39:08.208Z,99168.19
2023-01-25T17:41:35.516Z,99166.88
2023-01-25T17:44:03.132Z,99152.63
2023-01-25T17:46:34.987Z,99153.34
2023-01-25T17:49:04.155Z,99151.31
2023-01-25T17:51:34.087Z,99143.72
2023-01-25T17:54:01.944Z,99151.56
2023-01-25T17:56:29.591Z,99145.47
2023-01-25T17:58:58.355Z,99142.63
2023-01-25T18:01:32.509Z,99144.28
2023-01-25T18:04:02.505Z,99136.78
2023-01-25T18:06:31.262Z,99137.16
2023-01-25T18:09:04.938Z,99135.50
2023-01-25T18:11:34.126Z,99136.91
2023-01-25T18:14:08.132Z,99129.41
2023-01-25T18:16:38.859Z,99128.47
2023-01-25T18:19:06.832Z,99132.88
2023-01-25T18:21:34.718Z,99123.09
2023-01-25T18:24:28.898Z,99120.69
2023-01-25T18:27:05.027Z,99118.28
2023-01-25T18:29:45.605Z,99115.28
2023-01-25T18:32:14.269Z,99112.72
2023-01-25T18:34:41.609Z,99110.84
2023-01-25T18:37:17.864Z,99111.28
2023-01-25T18:39:50.139Z,99107.16
2023-01-25T18:42:18.070Z,99095.41
2023-01-25T18:44:48.238Z,99098.59
2023-01-25T18:47:20.769Z,99100.25
2023-01-25T18:49:49.931Z,99096.13
2023-01-25T18:52:19.238Z,99093.25
2023-01-25T18:54:47.023Z,99100.41
2023-01-25T18:57:15.089Z,99108.31
2023-01-25T18:59:42.646Z,99102.75
2023-01-25T19:02:15.851Z,99092.47
2023-01-25T19:04:43.975Z,99102.63
2023-01-25T19:07:11.406Z,99099.78
2023-01-25T19:09:39.124Z,99095.97
2023-01-25T19:12:06.592Z,99091.91
2023-01-25T19:14:33.932Z,99089.88
2023-01-25T19:17:01.320Z,99089.50
2023-01-25T19:19:33.653Z,99080.81
2023-01-25T19:22:01.088Z,99086.91
2023-01-25T19:24:28.510Z,99078.56
2023-01-25T19:26:56.032Z,99075.53
2023-01-25T19:29:23.408Z,99077.66
2023-01-25T19:31:50.941Z,99082.66
2023-01-25T19:34:18.333Z,99087.41
2023-01-25T19:36:49.383Z,99073.84
2023-01-25T19:39:17.277Z,99077.66
2023-01-25T19:41:44.789Z,99075.16
2023-01-25T19:44:13.968Z,99069.56
2023-01-25T19:46:41.661Z,99070.78
2023-01-25T19:49:09.867Z,99071.97
2023-01-25T19:51:41.265Z,99072.88
2023-01-25T19:54:16.641Z,99059.31
2023-01-25T19:56:46.633Z,99056.25
2023-01-25T19:59:17.439Z,99059.59
2023-01-25T20:01:45.511Z,99051.94
2023-01-25T20:04:16.245Z,99055.41
2023-01-25T20:06:43.848Z,99047.44
2023-01-25T20:09:15.542Z,99054.69
2023-01-25T20:11:43.100Z,99050.31
2023-01-25T20:14:12.491Z,99048.16
2023-01-25T20:16:40.178Z,99044.25
2023-01-25T20:19:07.824Z,99037.56
2023-01-25T20:21:39.978Z,99029.25
2023-01-25T20:24:08.622Z,99026.00
2023-01-25T20:26:39.022Z,99030.81
2023-01-25T20:29:07.255Z,99033.56
2023-01-25T20:31:42.359Z,99032.59
2023-01-25T20:34:21.771Z,99027.47
2023-01-25T20:36:49.962Z,99026.50
2023-01-25T20:39:21.789Z,99020.81
2023-01-25T20:41:53.222Z,99020.81
2023-01-25T20:44:20.242Z,99015.81
2023-01-25T20:46:47.684Z,99011.78
2023-01-25T20:49:17.669Z,99012.94
2023-01-25T20:51:45.753Z,99003.56
2023-01-25T20:54:13.170Z,99010.59
2023-01-25T20:56:40.982Z,99001.56
2023-01-25T20:59:08.801Z,98992.00
2023-01-25T21:01:38.800Z,98994.16
2023-01-25T21:04:07.979Z,98987.22
2023-01-25T21:06:39.462Z,98971.97
2023-01-25T21:09:07.101Z,98978.19
2023-01-25T21:11:34.705Z,98974.41
2023-01-25T21:14:02.229Z,98978.22
2023-01-25T21:16:30.148Z,98971.91
2023-01-25T21:19:00.375Z,98970.13
2023-01-25T21:21:30.373Z,98971.06
2023-01-25T21:23:59.984Z,98964.41
2023-01-25T21:26:30.615Z,98964.28
2023-01-25T21:28:59.598Z,98952.34
2023-01-25T21:31:33.747Z,98959.19
2023-01-25T21:34:01.624Z,98957.28
2023-01-25T21:36:29.065Z,98950.88
2023-01-25T21:38:56.419Z,98950.03
2023-01-25T21:41:26.973Z,98946.91
2023-01-25T21:44:14.859Z,98949.88
2023-01-25T21:46:46.702Z,98946.72
2023-01-25T21:49:42.009Z,98945.19
2023-01-25T21:52:09.443Z,98949.50
2023-01-25T21:54:37.961Z,98941.41
2023-01-25T21:57:09.866Z,98935.41
2023-01-25T21:59:38.183Z,98932.06
2023-01-25T22:02:07.532Z,98926.09
2023-01-25T22:04:36.043Z,98924.44
2023-01-25T22:07:04.151Z,98922.53
2023-01-25T22:09:31.669Z,98917.19
2023-01-25T22:11:59.277Z,98916.81
2023-01-25T22:14:26.589Z,98921.16
2023-01-25T22:16:56.015Z,98926.25
2023-01-25T22:19:23.443Z,98923.44
2023-01-25T22:21:50.944Z,98916.22
2023-01-25T22:24:18.636Z,98911.66
2023-01-25T22:26:47.651Z,98915.59
2023-01-25T22:29:15.153Z,98904.44
2023-01-25T22:31:43.206Z,98909.50
2023-01-25T22:34:11.239Z,98903.91
2023-01-25T22:36:38.811Z,98899.94
2023-01-25T22:39:06.471Z,98906.81
2023-01-25T22:41:35.844Z,98902.41
2023-01-25T22:44:03.208Z,98905.25
2023-01-25T22:46:30.794Z,98901.19
2023-01-25T22:48:58.952Z,98902.84
2023-01-25T22:51:29.401Z,98903.31
2023-01-25T22:53:58.574Z,98904.03
2023-01-25T22:56:28.879Z,98911.19
2023-01-25T22:58:56.355Z,98905.44
2023-01-25T23:01:26.708Z,98904.09
2023-01-25T23:03:54.453Z,98900.97
2023-01-25T23:06:26.759Z,98898.78
2023-01-25T23:08:59.914Z,98888.38
2023-01-25T23:11:35.236Z,98890.06
2023-01-25T23:14:26.979Z,98896.00
2023-01-25T23:17:14.082Z,98887.44
2023-01-25T23:19:41.419Z,98891.47
2023-01-25T23:22:08.758Z,98883.91
2023-01-25T23:24:36.071Z,98885.19
2023-01-25T23:27:03.561Z,98887.91
2023-01-25T23:29:31.373Z,98889.09
2023-01-25T23:31:58.704Z,98884.59
2023-01-25T23:34:26.176Z,98889.81
2023-01-25T23:36:53.479Z,98882.31
2023-01-25T23:39:20.889Z,98883.41
2023-01-25T23:41:51.127Z,98885.75
2023-01-25T23:44:18.625Z,98866.63
2023-01-25T23:46:46.408Z,98872.94
2023-01-25T23:49:13.815Z,98859.03
2023-01-25T23:51:41.126Z,98865.56
2023-01-25T23:54:08.549Z,98858.56
2023-01-25T23:56:35.851Z,98842.22
2023-01-25T23:59:03.202Z,98828.63
